Carthage, Kentucky
Current Conditions -  °F | °C
As of 10:53 AM on Sunday 21 Dec 2014 (Local Time) from KLUK Reporting Station
Broken Clouds Broken Clouds  
Wind Chill: 27°   Ceiling: 1800
Heat Index: 32°   Visibility: 8mi
Dew Point: 25°   Wind: 5mph
Humidity: 75%   Direction: NA
Pressure: 30.34"   Gusts: NA
Location:  38.8948°N, 84.2968°W
Report Text: KLUK 211553Z VRB04KT 8SM BKN018 00/M04 A3034 RMK AO2 SLP278 T00001039
Loading
Personal Weather Stations






























Interactive Weather Map New forecast layout! Learn more

10-Day Weather Forecast

Advertisements
Track Severe Weather on mobile